JLY7695 SBPV-SBEG
Flight info
| Callsign | JLY7695 |
|---|---|
| Flight time | 1h 4m |
| Altitude | 37000 |
| Route | MUPEG UZ74 IGAPO |
| Aircraft | A320/M-SDE3FGHIRWY/LB1 |
Departure
| Time | 2026-05-08 03:17 |
|---|---|
| Airport | Governador Jorge Teixeira de Oliveira International Airport (SBPV) |
Arrival
| Time | 2026-05-08 04:21 |
|---|---|
| Airport | Eduardo Gomes International Airport (SBEG) |
| Time | Latitude | Longitude | Altitude | Speed | Heading |
|---|---|---|---|---|---|
| 2026-05-08 03:00 | -8.71420 | -63.89930 | 299 ft | 0 kts | 86° |
| 2026-05-08 03:08 | -8.71420 | -63.89941 | 301 ft | 4 kts | 86° |
| 2026-05-08 03:08 | -8.71422 | -63.89968 | 299 ft | 4 kts | 86° |
| 2026-05-08 03:09 | -8.71424 | -63.89995 | 299 ft | 4 kts | 87° |
| 2026-05-08 03:09 | -8.71425 | -63.90022 | 299 ft | 4 kts | 82° |
| 2026-05-08 03:09 | -8.71433 | -63.90046 | 303 ft | 4 kts | 42° |
| 2026-05-08 03:09 | -8.71449 | -63.90054 | 303 ft | 1 kts | 356° |
| 2026-05-08 03:10 | -8.71453 | -63.90054 | 303 ft | 0 kts | 356° |
| 2026-05-08 03:12 | -8.71438 | -63.90055 | 303 ft | 6 kts | 356° |
| 2026-05-08 03:12 | -8.71368 | -63.90060 | 302 ft | 14 kts | 356° |
| 2026-05-08 03:12 | -8.71249 | -63.90066 | 303 ft | 18 kts | 356° |
| 2026-05-08 03:13 | -8.71116 | -63.90074 | 301 ft | 20 kts | 357° |
| 2026-05-08 03:13 | -8.70974 | -63.90082 | 301 ft | 21 kts | 356° |
| 2026-05-08 03:13 | -8.70824 | -63.90092 | 300 ft | 22 kts | 356° |
| 2026-05-08 03:13 | -8.70665 | -63.90101 | 302 ft | 23 kts | 358° |
| 2026-05-08 03:14 | -8.70500 | -63.90111 | 300 ft | 19 kts | 356° |
| 2026-05-08 03:14 | -8.70370 | -63.90118 | 300 ft | 20 kts | 356° |
| 2026-05-08 03:14 | -8.70228 | -63.90127 | 301 ft | 21 kts | 356° |
| 2026-05-08 03:14 | -8.70077 | -63.90135 | 299 ft | 22 kts | 357° |
| 2026-05-08 03:15 | -8.69947 | -63.90167 | 302 ft | 16 kts | 320° |
| 2026-05-08 03:15 | -8.69881 | -63.90249 | 300 ft | 12 kts | 285° |
| 2026-05-08 03:15 | -8.69930 | -63.90289 | 301 ft | 10 kts | 181° |
| 2026-05-08 03:15 | -8.69974 | -63.90287 | 300 ft | 0 kts | 176° |
| 2026-05-08 03:16 | -8.69990 | -63.90286 | 303 ft | 14 kts | 176° |
| 2026-05-08 03:16 | -8.70368 | -63.90264 | 303 ft | 91 kts | 176° |
| 2026-05-08 03:16 | -8.71201 | -63.90214 | 303 ft | 148 kts | 176° |
| 2026-05-08 03:16 | -8.72290 | -63.90146 | 722 ft | 156 kts | 177° |
| 2026-05-08 03:17 | -8.73370 | -63.90091 | 1277 ft | 155 kts | 177° |
| 2026-05-08 03:17 | -8.74519 | -63.90027 | 1466 ft | 176 kts | 177° |
| 2026-05-08 03:17 | -8.75868 | -63.89949 | 1510 ft | 211 kts | 177° |
| 2026-05-08 03:17 | -8.77421 | -63.89848 | 1762 ft | 236 kts | 172° |
| 2026-05-08 03:18 | -8.78981 | -63.89172 | 2099 ft | 258 kts | 135° |
| 2026-05-08 03:18 | -8.79883 | -63.87594 | 2645 ft | 267 kts | 98° |
| 2026-05-08 03:18 | -8.79705 | -63.85786 | 3403 ft | 265 kts | 63° |
| 2026-05-08 03:18 | -8.78527 | -63.84394 | 4195 ft | 264 kts | 29° |
| 2026-05-08 03:19 | -8.76793 | -63.83787 | 4995 ft | 266 kts | 9° |
| 2026-05-08 03:19 | -8.74957 | -63.83463 | 5791 ft | 270 kts | 9° |
| 2026-05-08 03:19 | -8.73097 | -63.83139 | 6558 ft | 274 kts | 9° |
| 2026-05-08 03:19 | -8.71206 | -63.82811 | 7285 ft | 278 kts | 9° |
| 2026-05-08 03:20 | -8.69291 | -63.82467 | 8015 ft | 282 kts | 12° |
| 2026-05-08 03:20 | -8.67394 | -63.81911 | 8751 ft | 286 kts | 19° |
| 2026-05-08 03:20 | -8.65523 | -63.81194 | 9476 ft | 290 kts | 21° |
| 2026-05-08 03:20 | -8.63669 | -63.80417 | 10130 ft | 295 kts | 22° |
| 2026-05-08 03:21 | -8.61712 | -63.79586 | 10371 ft | 317 kts | 22° |
| 2026-05-08 03:21 | -8.59600 | -63.78707 | 10511 ft | 339 kts | 22° |
| 2026-05-08 03:21 | -8.57363 | -63.77797 | 10856 ft | 352 kts | 21° |
| 2026-05-08 03:21 | -8.55082 | -63.76836 | 11418 ft | 358 kts | 26° |
| 2026-05-08 03:22 | -8.52904 | -63.75592 | 12016 ft | 362 kts | 30° |
| 2026-05-08 03:22 | -8.50719 | -63.74306 | 12629 ft | 365 kts | 30° |
| 2026-05-08 03:22 | -8.48514 | -63.73006 | 13232 ft | 369 kts | 30° |
| 2026-05-08 03:22 | -8.46290 | -63.71692 | 13810 ft | 372 kts | 30° |
| 2026-05-08 03:23 | -8.44051 | -63.70368 | 14329 ft | 375 kts | 31° |
| 2026-05-08 03:23 | -8.41821 | -63.69048 | 14851 ft | 377 kts | 31° |
| 2026-05-08 03:23 | -8.39550 | -63.67703 | 15372 ft | 380 kts | 31° |
| 2026-05-08 03:23 | -8.37262 | -63.66353 | 15890 ft | 382 kts | 31° |
| 2026-05-08 03:24 | -8.34956 | -63.64994 | 16406 ft | 384 kts | 31° |
| 2026-05-08 03:24 | -8.32641 | -63.63629 | 16911 ft | 387 kts | 32° |
| 2026-05-08 03:24 | -8.30311 | -63.62253 | 17427 ft | 389 kts | 32° |
| 2026-05-08 03:24 | -8.27967 | -63.60868 | 17935 ft | 391 kts | 32° |
| 2026-05-08 03:25 | -8.25612 | -63.59474 | 18400 ft | 394 kts | 33° |
| 2026-05-08 03:25 | -8.23278 | -63.58008 | 18824 ft | 396 kts | 34° |
| 2026-05-08 03:25 | -8.21007 | -63.56494 | 19243 ft | 398 kts | 36° |
| 2026-05-08 03:25 | -8.18714 | -63.54918 | 19680 ft | 400 kts | 36° |
| 2026-05-08 03:26 | -8.16412 | -63.53319 | 20112 ft | 402 kts | 36° |
| 2026-05-08 03:26 | -8.14099 | -63.51720 | 20544 ft | 405 kts | 36° |
| 2026-05-08 03:26 | -8.11761 | -63.50121 | 20968 ft | 407 kts | 36° |
| 2026-05-08 03:26 | -8.09400 | -63.48525 | 21374 ft | 410 kts | 36° |
| 2026-05-08 03:27 | -8.07021 | -63.46927 | 21773 ft | 412 kts | 36° |
| 2026-05-08 03:27 | -8.04625 | -63.45322 | 22177 ft | 414 kts | 36° |
| 2026-05-08 03:27 | -8.02216 | -63.43711 | 22559 ft | 417 kts | 36° |
| 2026-05-08 03:27 | -7.99827 | -63.42111 | 22932 ft | 419 kts | 36° |
| 2026-05-08 03:28 | -7.97395 | -63.40478 | 23300 ft | 421 kts | 36° |
| 2026-05-08 03:28 | -7.94949 | -63.38833 | 23636 ft | 423 kts | 36° |
| 2026-05-08 03:28 | -7.92493 | -63.37182 | 23929 ft | 426 kts | 36° |
| 2026-05-08 03:28 | -7.90023 | -63.35521 | 24217 ft | 428 kts | 35° |
| 2026-05-08 03:29 | -7.87539 | -63.33852 | 24498 ft | 430 kts | 35° |
| 2026-05-08 03:29 | -7.85040 | -63.32175 | 24766 ft | 432 kts | 35° |
| 2026-05-08 03:29 | -7.82532 | -63.30492 | 25041 ft | 435 kts | 35° |
| 2026-05-08 03:29 | -7.80006 | -63.28799 | 25309 ft | 437 kts | 35° |
| 2026-05-08 03:30 | -7.74959 | -63.25415 | 25833 ft | 441 kts | 35° |
| 2026-05-08 03:30 | -7.69832 | -63.21971 | 26339 ft | 445 kts | 35° |
| 2026-05-08 03:31 | -7.64652 | -63.18491 | 26833 ft | 449 kts | 34° |
| 2026-05-08 03:31 | -7.59430 | -63.14982 | 27312 ft | 453 kts | 34° |
| 2026-05-08 03:32 | -7.56798 | -63.13213 | 27545 ft | 455 kts | 34° |
| 2026-05-08 03:32 | -7.54196 | -63.11465 | 27782 ft | 457 kts | 34° |
| 2026-05-08 03:32 | -7.51547 | -63.09685 | 28013 ft | 459 kts | 34° |
| 2026-05-08 03:32 | -7.48883 | -63.07898 | 28233 ft | 461 kts | 34° |
| 2026-05-08 03:33 | -7.46207 | -63.06110 | 28444 ft | 462 kts | 34° |
| 2026-05-08 03:33 | -7.43521 | -63.04319 | 28659 ft | 464 kts | 34° |
| 2026-05-08 03:33 | -7.40822 | -63.02517 | 28856 ft | 466 kts | 34° |
| 2026-05-08 03:33 | -7.38111 | -63.00711 | 29059 ft | 468 kts | 34° |
| 2026-05-08 03:34 | -7.35391 | -62.98901 | 29242 ft | 469 kts | 34° |
| 2026-05-08 03:34 | -7.32701 | -62.97105 | 29436 ft | 471 kts | 34° |
| 2026-05-08 03:34 | -7.29969 | -62.95281 | 29617 ft | 472 kts | 34° |
| 2026-05-08 03:34 | -7.27223 | -62.93449 | 29796 ft | 474 kts | 34° |
| 2026-05-08 03:35 | -7.24479 | -62.91619 | 30048 ft | 473 kts | 34° |
| 2026-05-08 03:35 | -7.21729 | -62.89788 | 30273 ft | 473 kts | 34° |
| 2026-05-08 03:35 | -7.18993 | -62.87962 | 30491 ft | 473 kts | 34° |
| 2026-05-08 03:35 | -7.16250 | -62.86130 | 30697 ft | 473 kts | 34° |
| 2026-05-08 03:36 | -7.13509 | -62.84298 | 30912 ft | 473 kts | 33° |
| 2026-05-08 03:36 | -7.10768 | -62.82471 | 31120 ft | 473 kts | 33° |
| 2026-05-08 03:36 | -7.08023 | -62.80643 | 31328 ft | 473 kts | 33° |
| 2026-05-08 03:36 | -7.05274 | -62.78813 | 31551 ft | 473 kts | 33° |
| 2026-05-08 03:37 | -7.02568 | -62.77009 | 31777 ft | 473 kts | 33° |
| 2026-05-08 03:37 | -6.99825 | -62.75183 | 32013 ft | 473 kts | 33° |
| 2026-05-08 03:37 | -6.97083 | -62.73358 | 32245 ft | 473 kts | 33° |
| 2026-05-08 03:37 | -6.94338 | -62.71532 | 32480 ft | 472 kts | 33° |
| 2026-05-08 03:38 | -6.91599 | -62.69706 | 32711 ft | 472 kts | 33° |
| 2026-05-08 03:38 | -6.88865 | -62.67874 | 32937 ft | 472 kts | 33° |
| 2026-05-08 03:38 | -6.86133 | -62.66036 | 33179 ft | 472 kts | 33° |
| 2026-05-08 03:38 | -6.83405 | -62.64197 | 33416 ft | 472 kts | 33° |
| 2026-05-08 03:39 | -6.80677 | -62.62358 | 33653 ft | 472 kts | 33° |
| 2026-05-08 03:39 | -6.77951 | -62.60523 | 33899 ft | 472 kts | 33° |
| 2026-05-08 03:39 | -6.75263 | -62.58718 | 34114 ft | 471 kts | 33° |
| 2026-05-08 03:39 | -6.72533 | -62.56889 | 34324 ft | 471 kts | 33° |
| 2026-05-08 03:40 | -6.69804 | -62.55065 | 34544 ft | 471 kts | 33° |
| 2026-05-08 03:40 | -6.67078 | -62.53241 | 34763 ft | 470 kts | 33° |
| 2026-05-08 03:40 | -6.64358 | -62.51415 | 34964 ft | 470 kts | 33° |
| 2026-05-08 03:40 | -6.61641 | -62.49589 | 35165 ft | 469 kts | 33° |
| 2026-05-08 03:41 | -6.58922 | -62.47766 | 35356 ft | 469 kts | 33° |
| 2026-05-08 03:41 | -6.56204 | -62.45949 | 35539 ft | 469 kts | 33° |
| 2026-05-08 03:41 | -6.53528 | -62.44158 | 35723 ft | 469 kts | 33° |
| 2026-05-08 03:41 | -6.50811 | -62.42337 | 35909 ft | 469 kts | 33° |
| 2026-05-08 03:42 | -6.48094 | -62.40523 | 36088 ft | 468 kts | 33° |
| 2026-05-08 03:42 | -6.45372 | -62.38719 | 36263 ft | 468 kts | 33° |
| 2026-05-08 03:42 | -6.42651 | -62.36922 | 36431 ft | 468 kts | 33° |
| 2026-05-08 03:42 | -6.39929 | -62.35124 | 36590 ft | 468 kts | 32° |
| 2026-05-08 03:43 | -6.37208 | -62.33329 | 36762 ft | 468 kts | 32° |
| 2026-05-08 03:43 | -6.34486 | -62.31535 | 36907 ft | 468 kts | 32° |
| 2026-05-08 03:43 | -6.31797 | -62.29759 | 36948 ft | 470 kts | 32° |
| 2026-05-08 03:44 | -6.26336 | -62.26147 | 36940 ft | 470 kts | 32° |
| 2026-05-08 03:44 | -6.20877 | -62.22537 | 36943 ft | 470 kts | 33° |
| 2026-05-08 03:45 | -6.15415 | -62.18923 | 36946 ft | 470 kts | 32° |
| 2026-05-08 03:45 | -6.09949 | -62.15318 | 36945 ft | 470 kts | 32° |
| 2026-05-08 03:46 | -6.04521 | -62.11728 | 36951 ft | 471 kts | 32° |
| 2026-05-08 03:46 | -5.99049 | -62.08113 | 36955 ft | 471 kts | 32° |
| 2026-05-08 03:47 | -5.93571 | -62.04496 | 36962 ft | 471 kts | 33° |
| 2026-05-08 03:47 | -5.88096 | -62.00872 | 36965 ft | 472 kts | 32° |
| 2026-05-08 03:48 | -5.82644 | -61.97275 | 36968 ft | 472 kts | 32° |
| 2026-05-08 03:48 | -5.77158 | -61.93659 | 36966 ft | 472 kts | 32° |
| 2026-05-08 03:49 | -5.71665 | -61.90034 | 36966 ft | 472 kts | 32° |
| 2026-05-08 03:49 | -5.66177 | -61.86410 | 36966 ft | 472 kts | 32° |
| 2026-05-08 03:50 | -5.60684 | -61.82794 | 36966 ft | 472 kts | 31° |
| 2026-05-08 03:50 | -5.54967 | -61.79664 | 36962 ft | 471 kts | 27° |
| 2026-05-08 03:51 | -5.49179 | -61.76568 | 36965 ft | 471 kts | 27° |
| 2026-05-08 03:51 | -5.43398 | -61.73467 | 36965 ft | 471 kts | 27° |
| 2026-05-08 03:52 | -5.37621 | -61.70368 | 36964 ft | 471 kts | 27° |
| 2026-05-08 03:52 | -5.31878 | -61.67290 | 36961 ft | 471 kts | 27° |
| 2026-05-08 03:53 | -5.26096 | -61.64193 | 36963 ft | 471 kts | 27° |
| 2026-05-08 03:53 | -5.20316 | -61.61098 | 36964 ft | 471 kts | 27° |
| 2026-05-08 03:54 | -5.14533 | -61.57994 | 36963 ft | 471 kts | 27° |
| 2026-05-08 03:54 | -5.08791 | -61.54919 | 36965 ft | 471 kts | 27° |
| 2026-05-08 03:55 | -5.03009 | -61.51818 | 36966 ft | 471 kts | 27° |
| 2026-05-08 03:55 | -4.97232 | -61.48729 | 36967 ft | 471 kts | 27° |
| 2026-05-08 03:56 | -4.91446 | -61.45637 | 36963 ft | 471 kts | 27° |
| 2026-05-08 03:56 | -4.85673 | -61.42548 | 36965 ft | 471 kts | 27° |
| 2026-05-08 03:57 | -4.79928 | -61.39478 | 36969 ft | 471 kts | 27° |
| 2026-05-08 03:57 | -4.74153 | -61.36393 | 36971 ft | 470 kts | 27° |
| 2026-05-08 03:58 | -4.68385 | -61.33298 | 36971 ft | 470 kts | 27° |
| 2026-05-08 03:58 | -4.62619 | -61.30218 | 36969 ft | 470 kts | 27° |
| 2026-05-08 03:59 | -4.56844 | -61.27132 | 36970 ft | 470 kts | 27° |
| 2026-05-08 03:59 | -4.51117 | -61.24069 | 36970 ft | 470 kts | 27° |
| 2026-05-08 04:00 | -4.45356 | -61.20989 | 36966 ft | 469 kts | 27° |
| 2026-05-08 04:00 | -4.39591 | -61.17900 | 36956 ft | 470 kts | 27° |
| 2026-05-08 04:00 | -4.36703 | -61.16355 | 36310 ft | 474 kts | 27° |
| 2026-05-08 04:01 | -4.33780 | -61.14794 | 35448 ft | 476 kts | 27° |
| 2026-05-08 04:01 | -4.30843 | -61.13228 | 34550 ft | 480 kts | 27° |
| 2026-05-08 04:01 | -4.27922 | -61.11671 | 33558 ft | 485 kts | 27° |
| 2026-05-08 04:01 | -4.24941 | -61.10077 | 32517 ft | 487 kts | 28° |
| 2026-05-08 04:02 | -4.21937 | -61.08471 | 31433 ft | 490 kts | 28° |
| 2026-05-08 04:02 | -4.18930 | -61.06867 | 30431 ft | 491 kts | 28° |
| 2026-05-08 04:02 | -4.15924 | -61.05264 | 29676 ft | 485 kts | 28° |
| 2026-05-08 04:02 | -4.12967 | -61.03686 | 28966 ft | 478 kts | 29° |
| 2026-05-08 04:03 | -4.10053 | -61.02132 | 28275 ft | 472 kts | 29° |
| 2026-05-08 04:03 | -4.04323 | -60.99074 | 26929 ft | 461 kts | 29° |
| 2026-05-08 04:03 | -4.01507 | -60.97571 | 26272 ft | 457 kts | 29° |
| 2026-05-08 04:04 | -3.98714 | -60.96080 | 25622 ft | 452 kts | 30° |
| 2026-05-08 04:04 | -3.95988 | -60.94627 | 24988 ft | 449 kts | 30° |
| 2026-05-08 04:04 | -3.93241 | -60.93164 | 24355 ft | 445 kts | 30° |
| 2026-05-08 04:04 | -3.90520 | -60.91715 | 23740 ft | 442 kts | 30° |
| 2026-05-08 04:05 | -3.87818 | -60.90276 | 23063 ft | 438 kts | 30° |
| 2026-05-08 04:05 | -3.85144 | -60.88852 | 22476 ft | 432 kts | 30° |
| 2026-05-08 04:05 | -3.82508 | -60.87448 | 21948 ft | 426 kts | 30° |
| 2026-05-08 04:05 | -3.79908 | -60.86060 | 21422 ft | 421 kts | 30° |
| 2026-05-08 04:06 | -3.77341 | -60.84688 | 20919 ft | 416 kts | 30° |
| 2026-05-08 04:06 | -3.74802 | -60.83335 | 20427 ft | 412 kts | 30° |
| 2026-05-08 04:06 | -3.72320 | -60.82010 | 19943 ft | 408 kts | 30° |
| 2026-05-08 04:06 | -3.69929 | -60.80521 | 19449 ft | 403 kts | 38° |
| 2026-05-08 04:07 | -3.67691 | -60.78846 | 18963 ft | 400 kts | 38° |
| 2026-05-08 04:07 | -3.65468 | -60.77185 | 18472 ft | 398 kts | 38° |
| 2026-05-08 04:07 | -3.63252 | -60.75530 | 17922 ft | 396 kts | 38° |
| 2026-05-08 04:07 | -3.61052 | -60.73890 | 17410 ft | 393 kts | 38° |
| 2026-05-08 04:08 | -3.58870 | -60.72264 | 16902 ft | 390 kts | 38° |
| 2026-05-08 04:08 | -3.56705 | -60.70648 | 16392 ft | 387 kts | 38° |
| 2026-05-08 04:08 | -3.54584 | -60.69063 | 15887 ft | 384 kts | 38° |
| 2026-05-08 04:08 | -3.52449 | -60.67467 | 15375 ft | 382 kts | 38° |
| 2026-05-08 04:09 | -3.50324 | -60.65879 | 14857 ft | 380 kts | 38° |
| 2026-05-08 04:09 | -3.48212 | -60.64303 | 14337 ft | 378 kts | 38° |
| 2026-05-08 04:09 | -3.46104 | -60.62733 | 13826 ft | 377 kts | 37° |
| 2026-05-08 04:09 | -3.44006 | -60.61168 | 13267 ft | 375 kts | 37° |
| 2026-05-08 04:10 | -3.41927 | -60.59616 | 12741 ft | 371 kts | 37° |
| 2026-05-08 04:10 | -3.39870 | -60.58080 | 12214 ft | 368 kts | 37° |
| 2026-05-08 04:10 | -3.37831 | -60.56557 | 11693 ft | 364 kts | 37° |
| 2026-05-08 04:10 | -3.35808 | -60.55045 | 11156 ft | 361 kts | 37° |
| 2026-05-08 04:11 | -3.33830 | -60.53567 | 10637 ft | 358 kts | 37° |
| 2026-05-08 04:11 | -3.31865 | -60.52101 | 10457 ft | 345 kts | 37° |
| 2026-05-08 04:11 | -3.29981 | -60.50700 | 10341 ft | 330 kts | 37° |
| 2026-05-08 04:11 | -3.28171 | -60.49355 | 10228 ft | 317 kts | 37° |
| 2026-05-08 04:12 | -3.26434 | -60.48062 | 10106 ft | 305 kts | 37° |
| 2026-05-08 04:12 | -3.24762 | -60.46816 | 9959 ft | 295 kts | 38° |
| 2026-05-08 04:12 | -3.23201 | -60.45654 | 9578 ft | 295 kts | 37° |
| 2026-05-08 04:12 | -3.21528 | -60.44406 | 9251 ft | 290 kts | 37° |
| 2026-05-08 04:13 | -3.19915 | -60.43201 | 8868 ft | 289 kts | 38° |
| 2026-05-08 04:13 | -3.18309 | -60.42001 | 8492 ft | 287 kts | 38° |
| 2026-05-08 04:13 | -3.16738 | -60.40826 | 8124 ft | 285 kts | 38° |
| 2026-05-08 04:13 | -3.15156 | -60.39643 | 7739 ft | 283 kts | 38° |
| 2026-05-08 04:14 | -3.13589 | -60.38473 | 7372 ft | 281 kts | 38° |
| 2026-05-08 04:14 | -3.12023 | -60.37304 | 6929 ft | 281 kts | 37° |
| 2026-05-08 04:14 | -3.10432 | -60.36122 | 6263 ft | 290 kts | 37° |
| 2026-05-08 04:14 | -3.08789 | -60.34900 | 5530 ft | 299 kts | 37° |
| 2026-05-08 04:15 | -3.07103 | -60.33645 | 4801 ft | 306 kts | 37° |
| 2026-05-08 04:15 | -3.05562 | -60.32212 | 4549 ft | 295 kts | 51° |
| 2026-05-08 04:15 | -3.04530 | -60.30556 | 4545 ft | 276 kts | 65° |
| 2026-05-08 04:15 | -3.03959 | -60.28812 | 4429 ft | 254 kts | 78° |
| 2026-05-08 04:16 | -3.03808 | -60.27112 | 4162 ft | 240 kts | 89° |
| 2026-05-08 04:16 | -3.03814 | -60.25454 | 3860 ft | 237 kts | 88° |
| 2026-05-08 04:16 | -3.03817 | -60.23809 | 3561 ft | 235 kts | 88° |
| 2026-05-08 04:16 | -3.03821 | -60.22212 | 3267 ft | 224 kts | 88° |
| 2026-05-08 04:17 | -3.03825 | -60.20686 | 2984 ft | 214 kts | 88° |
| 2026-05-08 04:17 | -3.03828 | -60.19227 | 2716 ft | 206 kts | 88° |
| 2026-05-08 04:17 | -3.03831 | -60.17809 | 2478 ft | 202 kts | 88° |
| 2026-05-08 04:17 | -3.03834 | -60.16421 | 2195 ft | 197 kts | 88° |
| 2026-05-08 04:18 | -3.03837 | -60.15323 | 1993 ft | 193 kts | 88° |
| 2026-05-08 04:18 | -3.03840 | -60.14000 | 1744 ft | 188 kts | 88° |
| 2026-05-08 04:18 | -3.03843 | -60.12730 | 1501 ft | 176 kts | 89° |
| 2026-05-08 04:18 | -3.03846 | -60.11577 | 1294 ft | 157 kts | 88° |
| 2026-05-08 04:19 | -3.03848 | -60.10525 | 1105 ft | 148 kts | 89° |
| 2026-05-08 04:19 | -3.03850 | -60.09510 | 931 ft | 144 kts | 89° |
| 2026-05-08 04:19 | -3.03852 | -60.08507 | 748 ft | 144 kts | 89° |
| 2026-05-08 04:19 | -3.03853 | -60.07519 | 562 ft | 144 kts | 89° |
| 2026-05-08 04:20 | -3.03857 | -60.06521 | 359 ft | 143 kts | 89° |
| 2026-05-08 04:20 | -3.03859 | -60.05564 | 270 ft | 125 kts | 91° |
| 2026-05-08 04:20 | -3.03860 | -60.04853 | 269 ft | 78 kts | 90° |
| 2026-05-08 04:20 | -3.03861 | -60.04426 | 270 ft | 54 kts | 90° |
| 2026-05-08 04:21 | -3.03861 | -60.04093 | 269 ft | 36 kts | 91° |
| 2026-05-08 04:21 | -3.03862 | -60.03907 | 268 ft | 19 kts | 90° |
| 2026-05-08 04:21 | -3.03848 | -60.03804 | 268 ft | 13 kts | 54° |
| 2026-05-08 04:21 | -3.03778 | -60.03763 | 269 ft | 11 kts | 358° |
| 2026-05-08 04:22 | -3.03714 | -60.03793 | 269 ft | 10 kts | 317° |
| 2026-05-08 04:22 | -3.03683 | -60.03848 | 269 ft | 8 kts | 288° |
| 2026-05-08 04:22 | -3.03668 | -60.03900 | 268 ft | 7 kts | 285° |
| 2026-05-08 04:22 | -3.03651 | -60.03963 | 268 ft | 13 kts | 285° |
| 2026-05-08 04:23 | -3.03625 | -60.04054 | 268 ft | 14 kts | 286° |
| 2026-05-08 04:23 | -3.03596 | -60.04156 | 268 ft | 16 kts | 285° |
| 2026-05-08 04:23 | -3.03557 | -60.04263 | 268 ft | 17 kts | 303° |
| 2026-05-08 04:23 | -3.03468 | -60.04345 | 268 ft | 18 kts | 327° |
| 2026-05-08 04:24 | -3.03362 | -60.04384 | 268 ft | 12 kts | 345° |
| 2026-05-08 04:24 | -3.03324 | -60.04427 | 268 ft | 8 kts | 309° |
| 2026-05-08 04:24 | -3.03275 | -60.04444 | 268 ft | 6 kts | 345° |
| 2026-05-08 04:24 | -3.03253 | -60.04450 | 268 ft | 1 kts | 345° |
| 2026-05-08 04:25 | -3.03247 | -60.04451 | 268 ft | 0 kts | 345° |